Time;durP1;ratioP1;P1;durP2;ratioP2;P2;SDS_P1;SDS_P2;PMS_P1;PMS_P2;Temp;Humidity;BMP_temperature;BMP_pressure;BME280_temperature;BME280_humidity;BME280_pressure;Samples;Min_cycle;Max_cycle;Signal;HPM_P1;HPM_P2
2021/06/18 00:00:52;;;;;;;10.98;4.35;;;;;;;18.76;90.13;100532.28;5091284;28;20089;-73
2021/06/18 00:03:18;;;;;;;7.72;3.95;;;;;;;18.45;90.62;100526.91;5091029;28;20024;-74
2021/06/18 00:05:43;;;;;;;5.30;4.40;;;;;;;17.84;91.70;100490.78;5090819;28;20028;-74
2021/06/18 00:08:09;;;;;;;11.82;4.93;;;;;;;17.93;92.87;100528.28;5091272;28;20024;-74
2021/06/18 00:10:35;;;;;;;10.70;4.22;;;;;;;17.77;93.65;100526.41;5091505;28;20020;-74
2021/06/18 00:13:00;;;;;;;9.10;4.50;;;;;;;17.70;93.72;100515.03;5091425;28;20103;-74
2021/06/18 00:15:26;;;;;;;8.85;4.57;;;;;;;17.76;93.15;100504.63;5090829;28;20105;-74
2021/06/18 00:17:52;;;;;;;11.27;4.20;;;;;;;17.52;92.54;100442.69;5090952;28;20032;-74
2021/06/18 00:20:18;;;;;;;11.07;4.40;;;;;;;18.08;91.78;100508.38;5090819;28;20104;-74
2021/06/18 00:22:44;;;;;;;8.75;4.55;;;;;;;18.18;91.63;100512.81;5091676;28;20035;-74
2021/06/18 00:25:11;;;;;;;9.02;4.10;;;;;;;18.28;91.12;100505.91;5090862;28;20482;-73
2021/06/18 00:27:36;;;;;;;9.25;4.60;;;;;;;18.36;91.36;100492.88;5093505;28;20111;-74
2021/06/18 00:30:05;;;;;;;9.82;4.63;;;;;;;18.30;91.19;100491.09;5095015;28;20108;-74
2021/06/18 00:32:31;;;;;;;10.40;4.88;;;;;;;18.06;91.17;100491.84;5094667;28;20028;-74
2021/06/18 00:34:56;;;;;;;15.43;5.15;;;;;;;17.84;91.68;100491.63;5093205;28;20478;-74
2021/06/18 00:37:21;;;;;;;10.23;5.75;;;;;;;17.61;92.11;100454.91;5092963;28;20052;-74
2021/06/18 00:39:47;;;;;;;12.05;5.60;;;;;;;17.82;92.53;100490.75;5094632;28;20028;-74
2021/06/18 00:42:12;;;;;;;8.63;5.00;;;;;;;17.87;92.96;100477.72;5094738;28;20024;-74
2021/06/18 00:44:38;;;;;;;9.25;5.13;;;;;;;18.01;92.27;100477.88;5094639;28;20390;-74
2021/06/18 00:47:04;;;;;;;10.02;5.40;;;;;;;18.02;92.01;100479.59;5094388;28;20063;-73
2021/06/18 00:49:31;;;;;;;8.50;4.70;;;;;;;18.06;92.22;100502.28;5094484;28;20112;-74
2021/06/18 00:51:57;;;;;;;10.75;4.80;;;;;;;17.96;92.76;100490.88;5106627;28;20080;-73
2021/06/18 00:54:29;;;;;;;11.05;4.72;;;;;;;18.03;92.73;100495.31;5114806;28;20035;-74
2021/06/18 00:56:59;;;;;;;11.32;4.88;;;;;;;17.96;91.57;100470.00;5114761;28;20047;-74
2021/06/18 00:59:25;;;;;;;10.63;5.07;;;;;;;18.23;91.05;100508.50;5114573;28;20035;-74
2021/06/18 01:01:51;;;;;;;10.77;4.85;;;;;;;18.04;91.35;100493.56;5112105;28;20389;-74
2021/06/18 01:04:18;;;;;;;12.40;5.00;;;;;;;17.84;91.01;100455.06;5114753;28;20019;-73
2021/06/18 01:06:51;;;;;;;11.05;4.60;;;;;;;18.19;90.70;100506.69;5113939;28;20035;-74
2021/06/18 01:09:17;;;;;;;11.30;5.05;;;;;;;18.09;90.85;100497.06;5114231;28;20031;-73
2021/06/18 01:12:07;;;;;;;13.00;5.30;;;;;;;17.68;91.52;100448.00;5114521;28;20047;-74
2021/06/18 01:14:37;;;;;;;;;;;;;;;17.77;92.64;100503.78;5114691;28;20431;-74
2021/06/18 01:17:25;;;;;;;12.18;5.68;;;;;;;17.72;92.93;100507.19;5114093;28;19907;-74
2021/06/18 01:19:53;;;;;;;9.02;5.47;;;;;;;17.55;94.73;100501.84;5114007;28;20477;-74
2021/06/18 01:22:21;;;;;;;10.57;5.72;;;;;;;17.27;94.86;100476.38;5114582;28;20028;-73
2021/06/18 01:25:05;;;;;;;9.25;5.43;;;;;;;17.45;94.69;100488.72;5114220;28;20023;-72
2021/06/18 01:27:51;;;;;;;11.00;5.50;;;;;;;17.48;94.80;100498.28;5103195;28;20124;-72
2021/06/18 01:30:22;;;;;;;10.77;5.53;;;;;;;17.03;94.27;100422.22;5107505;28;20034;-72
2021/06/18 01:33:12;;;;;;;8.65;5.03;;;;;;;17.53;94.31;100496.59;5092950;28;20393;-72
2021/06/18 01:35:59;;;;;;;11.77;6.65;;;;;;;17.57;93.92;100503.63;5093393;28;20036;-72
2021/06/18 01:38:29;;;;;;;12.85;5.28;;;;;;;17.58;93.28;100500.16;5092564;28;20111;-73
2021/06/18 01:40:59;;;;;;;11.60;5.50;;;;;;;17.67;93.17;100508.91;5091573;28;20032;-72
2021/06/18 01:43:28;;;;;;;10.90;5.10;;;;;;;17.50;93.25;100500.94;5093193;28;20089;-70
2021/06/18 01:45:55;;;;;;;10.05;5.60;;;;;;;17.47;93.58;100504.41;5091415;28;20054;-72
2021/06/18 01:48:22;;;;;;;10.75;5.80;;;;;;;17.56;93.57;100504.47;5091698;28;20058;-71
2021/06/18 01:50:51;;;;;;;14.00;5.82;;;;;;;17.68;93.18;100502.81;5093504;28;20115;-70
2021/06/18 01:53:20;;;;;;;8.30;5.20;;;;;;;17.71;92.72;100502.88;5093326;28;20102;-71
2021/06/18 01:55:48;;;;;;;13.60;5.93;;;;;;;17.17;93.12;100438.03;5092503;28;20079;-68
2021/06/18 01:58:16;;;;;;;11.90;5.07;;;;;;;17.48;93.35;100487.84;5092886;28;20051;-70
2021/06/18 02:00:45;;;;;;;11.60;5.80;;;;;;;17.61;93.37;100499.31;5092784;28;20078;-71
2021/06/18 02:03:24;;;;;;;10.38;5.15;;;;;;;17.59;92.84;100501.88;5092502;28;20028;-70
2021/06/18 02:05:53;;;;;;;12.98;5.85;;;;;;;17.40;92.51;100459.09;5092725;28;20031;-70
2021/06/18 02:08:20;;;;;;;9.63;5.75;;;;;;;17.60;92.69;100501.03;5090927;28;20039;-70
2021/06/18 02:10:47;;;;;;;10.50;5.57;;;;;;;17.69;92.67;100507.19;5092818;28;20132;-68
2021/06/18 02:13:15;;;;;;;11.63;5.38;;;;;;;17.76;92.66;100511.59;5092413;28;20063;-71
2021/06/18 02:15:43;;;;;;;10.25;4.80;;;;;;;17.56;92.22;100475.75;5092530;28;20020;-71
2021/06/18 02:18:15;;;;;;;8.75;5.53;;;;;;;17.73;92.60;100514.19;5092456;28;20111;-71
2021/06/18 02:20:44;;;;;;;9.18;5.03;;;;;;;17.77;92.02;100506.38;5078423;28;20024;-70
2021/06/18 02:23:11;;;;;;;9.25;5.18;;;;;;;17.41;92.25;100476.50;5092142;28;20398;-72
2021/06/18 02:25:38;;;;;;;13.63;5.35;;;;;;;17.59;92.38;100527.13;5092262;28;20100;-72
2021/06/18 02:28:05;;;;;;;10.95;5.53;;;;;;;17.61;92.55;100525.41;5092456;28;20036;-71
2021/06/18 02:30:32;;;;;;;12.93;6.00;;;;;;;17.58;92.73;100521.03;5091875;28;20024;-71
2021/06/18 02:32:58;;;;;;;8.77;5.80;;;;;;;17.61;92.57;100525.41;5092327;28;20027;-71
2021/06/18 02:35:24;;;;;;;11.05;5.72;;;;;;;17.55;92.70;100515.78;5091989;28;20195;-71
2021/06/18 02:37:50;;;;;;;10.63;5.95;;;;;;;17.59;92.47;100511.44;5092224;28;20161;-71
2021/06/18 02:40:17;;;;;;;10.85;6.35;;;;;;;17.57;92.91;100513.16;5092157;28;20031;-72
2021/06/18 02:42:42;;;;;;;12.27;5.72;;;;;;;17.39;93.12;100517.34;5091978;28;20039;-71
2021/06/18 02:45:08;;;;;;;11.82;6.18;;;;;;;17.30;93.59;100515.53;5092171;28;20023;-72
2021/06/18 02:47:49;;;;;;;12.90;6.85;;;;;;;17.21;93.55;100511.94;5091365;28;20028;-71
2021/06/18 02:50:36;;;;;;;9.90;6.43;;;;;;;17.16;94.32;100517.16;5090683;28;20016;-71
2021/06/18 02:53:11;;;;;;;12.02;6.78;;;;;;;17.25;93.58;100511.16;5094340;28;20028;-72
2021/06/18 02:55:43;;;;;;;9.38;5.75;;;;;;;17.21;93.57;100505.03;5112667;28;20107;-72
2021/06/18 02:58:23;;;;;;;10.43;6.82;;;;;;;17.33;93.01;100500.78;5107907;28;20043;-72
2021/06/18 03:04:18;;;;;;;13.32;6.20;;;;;;;17.25;93.46;100508.53;5156024;22;20140;-72
2021/06/18 03:06:48;;;;;;;11.85;5.72;;;;;;;17.29;93.51;100513.78;5051762;28;20024;-72
2021/06/18 03:09:17;;;;;;;13.25;6.13;;;;;;;17.40;92.90;100515.63;5052229;28;20385;-72
2021/06/18 03:11:45;;;;;;;11.02;6.07;;;;;;;17.41;92.71;100518.25;5052056;28;20027;-73
2021/06/18 03:14:16;;;;;;;12.35;6.45;;;;;;;17.41;92.23;100496.53;5051959;28;20064;-72
2021/06/18 03:16:43;;;;;;;13.65;6.50;;;;;;;17.57;92.21;100516.66;5051880;28;20027;-72
2021/06/18 03:19:12;;;;;;;14.02;6.38;;;;;;;17.55;92.27;100518.38;5050614;28;20104;-72
2021/06/18 03:21:38;;;;;;;13.67;6.70;;;;;;;17.50;92.11;100503.56;5051512;28;20510;-71
2021/06/18 03:24:07;;;;;;;13.50;7.10;;;;;;;17.35;91.84;100473.84;5051665;28;20463;-72
2021/06/18 03:26:33;;;;;;;9.18;6.38;;;;;;;17.57;92.24;100519.28;5031738;28;20091;-73
2021/06/18 03:28:59;;;;;;;12.18;6.60;;;;;;;17.45;93.10;100516.56;5031610;28;20664;-72
2021/06/18 03:31:26;;;;;;;13.90;7.20;;;;;;;17.51;92.74;100511.41;5031474;28;20025;-72
2021/06/18 03:33:53;;;;;;;15.60;6.57;;;;;;;17.63;92.44;100518.44;5047675;28;20049;-73
2021/06/18 03:36:26;;;;;;;14.45;6.13;;;;;;;17.52;92.41;100497.50;5051390;28;20390;-73
2021/06/18 03:38:53;;;;;;;13.63;6.40;;;;;;;17.52;92.71;100497.50;5051507;28;20025;-73
2021/06/18 03:41:22;;;;;;;11.50;7.20;;;;;;;17.49;92.98;100500.06;5051516;28;20384;-73
2021/06/18 03:43:49;;;;;;;15.20;7.38;;;;;;;17.52;93.23;100504.41;5050844;28;20083;-73
2021/06/18 03:46:16;;;;;;;11.93;6.88;;;;;;;17.38;93.48;100484.28;4989917;28;20030;-73
2021/06/18 03:48:44;;;;;;;10.30;6.70;;;;;;;17.46;93.94;100494.81;4989969;28;20046;-73
2021/06/18 03:51:10;;;;;;;15.77;7.03;;;;;;;17.44;94.02;100499.13;4989916;28;20065;-73
2021/06/18 03:53:36;;;;;;;11.52;6.22;;;;;;;17.15;94.44;100458.00;4990083;28;20080;-73
2021/06/18 03:56:02;;;;;;;12.07;6.80;;;;;;;17.37;94.97;100500.84;4989830;28;20038;-73
2021/06/18 03:58:30;;;;;;;13.55;5.95;;;;;;;17.08;95.00;100461.41;5002620;28;20112;-73
2021/06/18 04:00:57;;;;;;;18.02;6.82;;;;;;;17.34;95.85;100500.78;5009395;28;20592;-73
2021/06/18 04:03:24;;;;;;;12.60;6.55;;;;;;;17.32;96.30;100493.81;4980213;28;20045;-71
2021/06/18 04:05:51;;;;;;;8.18;6.22;;;;;;;17.13;97.48;100480.56;5013190;28;20041;-73
2021/06/18 04:08:20;;;;;;;13.75;6.82;;;;;;;16.75;99.15;100453.19;5013282;28;20129;-73
2021/06/18 04:10:45;;;;;;;10.65;6.05;;;;;;;16.90;99.08;100472.50;5013135;28;20057;-73
2021/06/18 04:13:12;;;;;;;15.40;6.40;;;;;;;17.30;98.74;100506.84;5013040;28;20056;-72
2021/06/18 04:15:38;;;;;;;11.73;6.53;;;;;;;17.30;98.09;100480.75;5013104;28;20128;-73
2021/06/18 04:18:04;;;;;;;12.25;6.35;;;;;;;17.47;97.28;100493.97;5048417;28;20037;-73
2021/06/18 04:20:31;;;;;;;10.60;6.10;;;;;;;17.60;97.39;100498.41;5054917;28;20028;-73
2021/06/18 04:22:57;;;;;;;12.10;6.75;;;;;;;17.66;97.57;100500.22;5054919;28;20077;-73
2021/06/18 04:25:23;;;;;;;13.93;6.15;;;;;;;17.67;96.74;100495.84;5054839;28;20025;-73
2021/06/18 04:27:49;;;;;;;10.52;6.38;;;;;;;17.75;96.96;100504.63;5054448;28;20087;-72
2021/06/18 04:30:16;;;;;;;11.93;7.15;;;;;;;17.81;96.83;100496.84;5054777;28;20025;-72
2021/06/18 04:32:43;;;;;;;10.93;6.82;;;;;;;17.88;96.43;100498.66;5055033;28;20067;-73
2021/06/18 04:35:09;;;;;;;10.00;6.47;;;;;;;17.87;96.21;100486.44;5054862;28;20061;-73
2021/06/18 04:37:36;;;;;;;11.68;6.40;;;;;;;17.89;97.02;100504.72;5054552;28;20037;-73
2021/06/18 04:40:03;;;;;;;10.48;6.95;;;;;;;17.94;96.68;100503.94;5054315;28;20013;-72
2021/06/18 04:42:29;;;;;;;9.60;6.68;;;;;;;17.99;96.92;100497.88;5054221;28;20487;-73
2021/06/18 04:44:54;;;;;;;12.55;7.55;;;;;;;17.87;97.26;100469.88;5054388;28;20118;-73
2021/06/18 04:47:20;;;;;;;14.98;7.60;;;;;;;17.83;97.29;100463.78;5054267;28;20020;-72
2021/06/18 04:49:47;;;;;;;13.18;7.72;;;;;;;17.85;97.50;100463.78;5054329;28;20108;-73
2021/06/18 04:52:13;;;;;;;12.40;7.20;;;;;;;18.03;97.58;100497.03;5054165;28;20025;-73
2021/06/18 04:54:38;;;;;;;12.75;7.38;;;;;;;18.11;97.64;100496.22;5054025;28;20104;-72
2021/06/18 04:57:04;;;;;;;10.90;7.10;;;;;;;18.16;97.14;100498.00;5054158;28;20025;-72
2021/06/18 04:59:29;;;;;;;13.27;7.50;;;;;;;18.11;97.41;100485.75;5054158;28;20051;-73
2021/06/18 05:01:55;;;;;;;9.73;7.13;;;;;;;18.22;97.97;100503.25;5054100;28;20082;-70
2021/06/18 05:04:20;;;;;;;13.73;7.72;;;;;;;18.31;98.30;100502.44;5054172;28;20150;-71
2021/06/18 05:06:47;;;;;;;9.18;7.45;;;;;;;18.37;97.61;100505.94;5053681;28;20115;-73
2021/06/18 05:09:12;;;;;;;13.65;6.45;;;;;;;18.22;96.72;100501.50;5035880;28;20363;-72
2021/06/18 05:11:38;;;;;;;13.82;7.45;;;;;;;18.17;98.31;100500.59;5052951;28;20082;-73
2021/06/18 05:14:03;;;;;;;10.13;7.13;;;;;;;18.31;99.61;100499.81;5052511;28;20025;-72
2021/06/18 05:16:29;;;;;;;15.98;7.78;;;;;;;18.42;99.91;100511.22;5053952;28;20016;-72
2021/06/18 05:18:54;;;;;;;10.73;7.18;;;;;;;18.51;98.85;100519.09;5053616;28;20060;-73
2021/06/18 05:21:20;;;;;;;12.32;7.32;;;;;;;18.35;98.37;100478.06;5053592;28;20028;-73
2021/06/18 05:23:45;;;;;;;10.73;6.38;;;;;;;18.56;98.24;100499.06;5053418;28;20360;-73
2021/06/18 05:26:11;;;;;;;9.75;6.60;;;;;;;18.69;96.61;100510.47;5053467;28;20017;-72
2021/06/18 05:28:36;;;;;;;8.27;6.78;;;;;;;18.61;95.61;100512.16;5053378;28;20040;-73
2021/06/18 05:31:02;;;;;;;10.63;7.05;;;;;;;18.72;95.95;100500.00;5053519;28;20025;-74
2021/06/18 05:33:28;;;;;;;10.30;6.75;;;;;;;18.82;96.11;100494.81;5053630;28;20112;-75
2021/06/18 05:35:54;;;;;;;9.48;6.57;;;;;;;19.06;94.61;100510.59;5053459;28;20021;-73
2021/06/18 05:38:19;;;;;;;10.55;6.90;;;;;;;19.17;93.75;100508.03;5053257;28;20028;-72
2021/06/18 05:40:44;;;;;;;10.70;7.18;;;;;;;19.23;93.27;100502.78;5053015;28;20029;-73
2021/06/18 05:43:11;;;;;;;14.38;6.93;;;;;;;19.27;93.48;100501.06;5053339;28;20459;-73
2021/06/18 05:45:38;;;;;;;12.88;7.00;;;;;;;19.38;93.13;100512.41;5053372;28;20024;-73
2021/06/18 05:48:04;;;;;;;12.90;6.63;;;;;;;19.48;92.45;100515.06;5053085;28;20036;-76
2021/06/18 05:50:30;;;;;;;10.13;6.50;;;;;;;19.49;92.45;100506.31;5052803;28;20493;-72
2021/06/18 05:52:56;;;;;;;7.65;5.35;;;;;;;19.52;90.84;100503.72;5052724;28;20020;-72
2021/06/18 05:55:21;;;;;;;9.05;5.30;;;;;;;19.66;90.87;100516.81;5035182;28;20029;-72
2021/06/18 05:57:49;;;;;;;6.95;4.88;;;;;;;19.53;89.99;100482.75;5049306;28;20486;-72
2021/06/18 06:00:15;;;;;;;8.82;5.50;;;;;;;19.73;90.31;100493.22;5041481;28;20025;-71
2021/06/18 06:02:41;;;;;;;10.70;5.95;;;;;;;19.86;90.96;100504.63;5032818;28;20034;-72
2021/06/18 06:05:07;;;;;;;11.05;5.30;;;;;;;19.90;89.74;100496.75;5032588;28;20380;-72
2021/06/18 06:07:32;;;;;;;7.28;4.97;;;;;;;19.85;89.87;100505.50;5032330;28;20028;-73
2021/06/18 06:09:58;;;;;;;8.98;4.93;;;;;;;19.60;90.95;100461.81;5032871;28;20021;-72
2021/06/18 06:12:23;;;;;;;10.70;4.78;;;;;;;19.43;92.16;100451.31;5032538;28;20388;-74
2021/06/18 06:14:50;;;;;;;6.57;4.47;;;;;;;19.56;93.33;100490.63;5032788;28;20427;-72
2021/06/18 06:17:16;;;;;;;10.43;4.50;;;;;;;19.54;92.47;100483.66;5032534;28;20029;-70
2021/06/18 06:19:41;;;;;;;15.07;4.82;;;;;;;19.65;94.40;100488.88;5032297;28;20013;-72
2021/06/18 06:22:07;;;;;;;4.28;3.60;;;;;;;19.62;93.30;100494.13;4990315;28;20095;-72
2021/06/18 06:24:32;;;;;;;12.10;4.22;;;;;;;19.65;91.45;100488.88;5004031;28;20505;-73
2021/06/18 06:26:58;;;;;;;7.25;3.95;;;;;;;19.69;91.34;100490.63;5012167;28;20042;-74
2021/06/18 06:29:23;;;;;;;4.82;3.42;;;;;;;19.79;90.52;100486.22;5009913;28;20036;-73
2021/06/18 06:31:49;;;;;;;5.00;3.42;;;;;;;19.73;91.38;100461.78;5009804;28;20623;-75
2021/06/18 06:34:14;;;;;;;8.68;3.80;;;;;;;19.86;91.47;100478.44;4999130;28;20030;-72
2021/06/18 06:36:40;;;;;;;5.97;3.83;;;;;;;19.96;92.09;100479.28;5000779;28;20041;-72
2021/06/18 06:39:06;;;;;;;7.13;4.03;;;;;;;19.92;93.99;100451.31;4999710;28;20018;-73
2021/06/18 06:41:32;;;;;;;4.32;3.72;;;;;;;20.00;92.14;100449.56;4993056;28;20033;-73
2021/06/18 06:43:57;;;;;;;5.85;4.18;;;;;;;20.25;93.50;100474.84;5009346;28;20036;-73
2021/06/18 06:46:23;;;;;;;8.98;4.18;;;;;;;20.33;92.06;100487.03;5009561;28;20030;-72
2021/06/18 06:48:49;;;;;;;7.63;4.03;;;;;;;20.43;93.32;100473.91;4996849;28;20044;-73
2021/06/18 06:51:15;;;;;;;9.73;4.03;;;;;;;20.50;89.04;100480.88;4998899;28;20033;-72
2021/06/18 06:53:42;;;;;;;4.45;3.75;;;;;;;20.41;89.20;100444.19;5040728;28;20091;-73
2021/06/18 06:56:07;;;;;;;5.57;3.70;;;;;;;20.58;88.23;100475.59;5051236;28;20485;-73
2021/06/18 06:58:33;;;;;;;4.93;3.60;;;;;;;20.60;88.07;100481.69;5051137;28;20021;-73
2021/06/18 07:00:58;;;;;;;6.65;3.30;;;;;;;20.68;88.94;100482.53;5051268;28;20023;-71
2021/06/18 07:03:24;;;;;;;6.38;3.53;;;;;;;20.57;88.76;100466.00;5051242;28;20037;-73
2021/06/18 07:05:49;;;;;;;7.22;4.00;;;;;;;20.64;89.85;100476.44;5050913;28;20383;-73
2021/06/18 07:08:19;;;;;;;8.05;3.67;;;;;;;20.60;91.00;100472.09;5050196;28;20075;-73
2021/06/18 07:10:46;;;;;;;7.20;4.05;;;;;;;20.66;89.68;100463.31;5051379;28;20020;-73
2021/06/18 07:13:12;;;;;;;9.10;3.63;;;;;;;20.59;87.86;100474.72;5051065;28;20532;-73
2021/06/18 07:15:37;;;;;;;8.63;3.80;;;;;;;20.57;89.68;100463.38;5051168;28;20025;-73
2021/06/18 07:18:03;;;;;;;7.15;3.78;;;;;;;20.33;89.92;100428.50;5051420;28;20036;-72
2021/06/18 07:20:28;;;;;;;9.90;3.85;;;;;;;20.59;89.88;100469.50;5050819;28;20111;-73
2021/06/18 07:22:54;;;;;;;6.13;4.35;;;;;;;20.36;89.31;100429.38;5032990;28;20120;-72
2021/06/18 07:25:19;;;;;;;5.65;3.60;;;;;;;20.49;87.35;100442.44;5050615;28;20378;-71
2021/06/18 07:27:45;;;;;;;8.07;4.00;;;;;;;20.33;89.52;100423.25;5050882;28;20075;-71
2021/06/18 07:30:10;;;;;;;6.35;3.47;;;;;;;20.49;90.35;100464.25;5050953;28;20359;-73
2021/06/18 07:32:36;;;;;;;12.85;3.92;;;;;;;20.35;90.38;100418.91;5033285;28;20094;-72
2021/06/18 07:35:02;;;;;;;4.78;3.75;;;;;;;20.63;89.72;100465.97;5050932;28;20096;-71
2021/06/18 07:37:27;;;;;;;5.53;4.00;;;;;;;20.69;90.00;100461.53;5053578;28;20020;-72
2021/06/18 07:39:53;;;;;;;5.72;3.40;;;;;;;20.65;88.92;100466.84;5054836;28;20069;-71
2021/06/18 07:42:18;;;;;;;4.60;3.60;;;;;;;20.39;89.09;100428.47;5055016;28;20453;-72
2021/06/18 07:44:44;;;;;;;5.50;4.00;;;;;;;20.58;88.92;100452.00;5054197;28;20029;-72
2021/06/18 07:47:09;;;;;;;6.20;4.10;;;;;;;20.76;88.95;100461.56;5054742;28;20016;-73
2021/06/18 07:49:35;;;;;;;5.60;4.00;;;;;;;20.49;88.79;100426.69;5054868;28;20017;-73
2021/06/18 07:52:01;;;;;;;5.75;3.42;;;;;;;20.67;88.94;100446.69;5054652;28;20028;-75
2021/06/18 07:54:27;;;;;;;7.32;3.70;;;;;;;20.75;89.50;100457.19;5055036;28;20073;-71
2021/06/18 07:56:54;;;;;;;6.00;3.78;;;;;;;20.86;90.00;100458.03;5054772;28;20024;-74
2021/06/18 07:59:19;;;;;;;5.85;3.70;;;;;;;20.92;88.88;100455.34;5054476;28;20025;-74
2021/06/18 08:01:45;;;;;;;6.05;3.80;;;;;;;21.05;88.85;100464.03;5011354;28;20441;-74
2021/06/18 08:04:10;;;;;;;5.22;3.85;;;;;;;20.91;87.76;100423.84;5054845;28;20444;-76
2021/06/18 08:06:36;;;;;;;5.47;3.55;;;;;;;20.96;86.31;100432.56;5036547;28;20049;-76
2021/06/18 08:09:03;;;;;;;4.72;3.80;;;;;;;21.06;87.16;100467.50;5036696;28;20032;-73
2021/06/18 08:11:29;;;;;;;8.65;4.25;;;;;;;21.08;88.33;100463.13;5054705;28;20094;-74
2021/06/18 08:13:54;;;;;;;5.57;3.70;;;;;;;21.11;86.50;100466.59;5054674;28;20463;-73
2021/06/18 08:16:20;;;;;;;5.93;4.25;;;;;;;21.16;87.35;100456.94;5054616;28;20017;-72
2021/06/18 08:18:45;;;;;;;7.28;4.00;;;;;;;21.02;87.45;100466.66;5053884;28;20020;-72
2021/06/18 08:21:11;;;;;;;7.05;3.90;;;;;;;21.01;89.69;100470.19;5035988;28;20029;-74
2021/06/18 08:23:37;;;;;;;5.63;3.72;;;;;;;21.10;87.33;100474.50;5054764;28;20032;-73
2021/06/18 08:26:03;;;;;;;12.75;7.90;;;;;;;20.92;87.04;100478.09;5033901;28;20394;-74
2021/06/18 08:28:28;;;;;;;7.72;6.22;;;;;;;21.00;88.12;100473.69;5051548;28;20043;-73
2021/06/18 08:30:53;;;;;;;7.72;6.03;;;;;;;20.92;87.74;100471.09;5035120;28;20032;-72
2021/06/18 08:33:19;;;;;;;5.68;4.32;;;;;;;20.92;88.09;100476.34;5053132;28;20024;-72
2021/06/18 08:35:45;;;;;;;6.20;3.70;;;;;;;20.79;86.70;100467.66;5053227;28;20029;-72
2021/06/18 08:38:10;;;;;;;7.22;3.95;;;;;;;20.78;88.12;100465.91;5053377;28;20091;-72
2021/06/18 08:40:36;;;;;;;11.32;4.45;;;;;;;20.85;88.50;100457.13;5053471;28;20048;-72
2021/06/18 08:43:03;;;;;;;6.10;4.13;;;;;;;20.61;87.26;100389.03;5052847;28;20032;-75
2021/06/18 08:45:30;;;;;;;7.45;4.30;;;;;;;21.17;86.78;100468.31;5053210;28;20425;-72
2021/06/18 08:47:56;;;;;;;6.05;3.90;;;;;;;21.15;85.88;100464.84;5052816;28;20120;-71
2021/06/18 08:50:24;;;;;;;6.07;3.97;;;;;;;21.11;86.35;100457.84;5038690;28;20049;-70
2021/06/18 08:52:55;;;;;;;4.88;4.28;;;;;;;21.14;86.28;100442.94;5056559;28;20025;-73
2021/06/18 08:55:23;;;;;;;11.18;4.32;;;;;;;21.03;86.28;100436.91;5053272;28;20430;-72
2021/06/18 08:57:51;;;;;;;9.75;4.32;;;;;;;20.96;87.72;100429.94;5052663;28;20021;-72
2021/06/18 09:00:19;;;;;;;5.22;3.78;;;;;;;21.16;85.55;100462.19;5050900;28;20364;-72
2021/06/18 09:02:45;;;;;;;7.32;4.15;;;;;;;20.91;86.83;100427.38;5051567;28;20471;-74
2021/06/18 09:05:13;;;;;;;10.38;3.88;;;;;;;21.14;85.99;100452.59;5051821;28;20044;-74
2021/06/18 09:07:59;;;;;;;10.07;4.60;;;;;;;21.16;85.72;100462.19;5050301;28;20041;-75
2021/06/18 09:10:41;;;;;;;6.45;4.35;;;;;;;21.17;87.18;100469.19;5051353;28;20505;-74
2021/06/18 09:13:19;;;;;;;6.18;4.10;;;;;;;20.94;86.88;100429.97;5051668;28;20111;-74
2021/06/18 09:15:44;;;;;;;5.30;3.53;;;;;;;20.94;86.24;100426.47;5050898;28;20483;-75
2021/06/18 09:18:34;;;;;;;7.28;4.43;;;;;;;21.06;86.81;100465.78;5035134;28;20023;-76
2021/06/18 09:20:59;;;;;;;;;;;;;;;21.09;84.68;100470.97;5052517;28;20016;-73
2021/06/18 09:23:28;;;;;;;7.07;4.70;;;;;;;21.09;85.73;100442.09;5051679;28;19916;-74
2021/06/18 09:26:33;;;;;;;6.47;4.23;;;;;;;21.12;85.10;100463.09;5052363;28;20024;-76
2021/06/18 09:29:11;;;;;;;9.75;4.82;;;;;;;20.99;86.70;100417.66;5050886;28;20018;-74
2021/06/18 09:31:46;;;;;;;7.22;4.10;;;;;;;21.16;86.35;100451.69;5052247;28;20021;-74
2021/06/18 09:34:12;;;;;;;7.53;4.20;;;;;;;20.98;86.03;100412.44;5051760;28;20155;-74
2021/06/18 09:36:38;;;;;;;9.23;4.45;;;;;;;20.84;86.25;100397.66;5032356;28;20040;-76
2021/06/18 09:39:09;;;;;;;6.85;4.13;;;;;;;20.88;87.04;100452.75;5051839;28;20109;-74
2021/06/18 09:41:50;;;;;;;5.43;3.90;;;;;;;20.91;87.06;100443.13;5051477;28;20071;-72
2021/06/18 09:44:22;;;;;;;9.15;4.07;;;;;;;20.66;86.44;100384.63;5050663;28;20083;-72
2021/06/18 09:46:55;;;;;;;7.00;3.90;;;;;;;20.99;85.98;100422.91;5051099;28;20029;-72
2021/06/18 09:49:41;;;;;;;6.07;3.80;;;;;;;21.07;85.03;100430.78;5051493;28;20028;-69
2021/06/18 09:52:12;;;;;;;5.82;4.13;;;;;;;21.05;87.01;100423.75;5022855;28;20055;-73
2021/06/18 09:54:44;;;;;;;4.68;3.40;;;;;;;21.13;85.40;100407.09;5050224;28;20028;-74
2021/06/18 09:57:15;;;;;;;7.68;3.55;;;;;;;20.88;84.46;100371.41;5049833;28;20032;-73
2021/06/18 09:59:49;;;;;;;5.60;3.28;;;;;;;21.10;82.44;100414.97;5033831;28;20068;-73
2021/06/18 10:02:15;;;;;;;5.85;3.20;;;;;;;21.24;84.47;100420.13;5049717;28;20489;-70
2021/06/18 10:04:41;;;;;;;5.60;3.65;;;;;;;21.40;84.87;100405.13;5048798;28;20037;-70
2021/06/18 10:07:10;;;;;;;4.20;3.30;;;;;;;21.50;76.97;100413.78;5051116;28;20021;-70
2021/06/18 10:09:39;;;;;;;5.07;3.40;;;;;;;21.56;78.49;100415.50;5051495;28;20033;-70
2021/06/18 10:12:06;;;;;;;3.90;3.35;;;;;;;21.64;80.67;100417.16;5050311;28;20036;-70
2021/06/18 10:14:33;;;;;;;3.90;3.20;;;;;;;21.50;77.33;100409.38;5051084;28;20049;-71
2021/06/18 10:17:00;;;;;;;6.68;3.75;;;;;;;21.52;77.53;100411.13;5051737;28;20079;-70
2021/06/18 10:19:25;;;;;;;6.45;3.55;;;;;;;21.59;78.30;100389.22;5052062;28;20067;-70
2021/06/18 10:22:01;;;;;;;5.13;3.35;;;;;;;21.63;79.12;100407.56;5051526;28;20493;-70
2021/06/18 10:24:35;;;;;;;6.35;3.83;;;;;;;21.77;77.14;100404.81;5051838;28;20021;-70
2021/06/18 10:27:02;;;;;;;4.38;3.83;;;;;;;21.66;77.62;100393.53;5050695;28;20115;-70
2021/06/18 10:29:37;;;;;;;5.68;3.80;;;;;;;21.70;77.38;100399.63;5050324;28;20029;-69
2021/06/18 10:32:28;;;;;;;6.53;3.78;;;;;;;21.58;73.30;100395.34;5051302;28;20024;-70
2021/06/18 10:34:54;;;;;;;5.28;3.97;;;;;;;21.14;76.79;100344.94;5041017;28;20024;-68
2021/06/18 10:37:22;;;;;;;4.40;3.50;;;;;;;21.30;75.33;100388.56;5051502;28;20482;-69
2021/06/18 10:40:06;;;;;;;5.30;3.55;;;;;;;21.44;75.32;100398.09;5033627;28;20437;-69
2021/06/18 10:42:32;;;;;;;5.82;3.63;;;;;;;21.33;76.03;100396.44;5050540;28;20025;-70
2021/06/18 10:44:57;;;;;;;6.97;3.90;;;;;;;21.27;78.60;100388.59;5051406;28;20063;-70
2021/06/18 10:47:23;;;;;;;7.05;4.07;;;;;;;21.32;78.19;100384.19;5051767;28;20077;-70
2021/06/18 10:49:52;;;;;;;6.70;4.13;;;;;;;21.32;77.43;100378.03;5051448;28;20459;-70
2021/06/18 10:52:19;;;;;;;4.35;3.83;;;;;;;21.21;78.75;100372.00;5051690;28;20024;-70
2021/06/18 10:54:53;;;;;;;4.70;4.10;;;;;;;21.27;78.58;100372.84;5024389;28;20475;-70
2021/06/18 10:57:21;;;;;;;4.50;3.75;;;;;;;21.24;78.76;100375.47;5049470;28;20078;-72
2021/06/18 10:59:50;;;;;;;6.85;4.13;;;;;;;21.24;79.48;100374.63;5050649;28;20020;-72
2021/06/18 11:02:31;;;;;;;6.35;4.25;;;;;;;21.34;79.62;100371.03;5050569;28;20382;-72
2021/06/18 11:05:28;;;;;;;4.38;3.83;;;;;;;21.47;79.82;100375.28;5011774;28;20049;-73
2021/06/18 11:08:20;;;;;;;7.93;4.25;;;;;;;21.46;79.24;100365.66;5029221;28;20530;-75
2021/06/18 11:10:48;;;;;;;5.03;3.90;;;;;;;21.39;79.04;100332.47;5025988;28;20479;-79
2021/06/18 11:13:18;;;;;;;5.97;4.07;;;;;;;21.62;79.99;100363.78;5028881;28;20557;-72
2021/06/18 11:15:47;;;;;;;5.70;4.40;;;;;;;21.59;77.80;100352.44;5030686;28;20066;-72
2021/06/18 11:18:19;;;;;;;6.40;3.83;;;;;;;21.61;77.27;100343.66;5029346;28;20021;-72
2021/06/18 11:20:53;;;;;;;6.97;5.15;;;;;;;21.80;79.38;100348.72;5030414;28;20026;-73
2021/06/18 11:23:24;;;;;;;6.22;4.03;;;;;;;21.89;77.62;100347.72;5030493;28;20021;-73
2021/06/18 11:26:20;;;;;;;6.47;4.15;;;;;;;21.78;79.58;100305.81;4988783;28;20034;-73
2021/06/18 11:28:48;;;;;;;13.02;6.47;;;;;;;22.11;78.11;100341.31;4972354;28;20064;-71
2021/06/18 11:31:36;;;;;;;11.63;6.00;;;;;;;22.13;76.87;100350.06;4989028;28;20034;-70